NKS311 KLAS-KBUR
Flight info
| Callsign | NKS311 |
|---|---|
| Flight time | N/A |
| Altitude | 18000 |
| Route | RADYR2 SLVRR KREME JANNY5 |
| Aircraft | A320/M-SDE3FGHIRWY/LB1 |
Departure
| Time | 2026-05-03 22:50 |
|---|---|
| Airport | Harry Reid International Airport (KLAS) |
Arrival
| Time | N/A |
|---|---|
| Airport | Hollywood Burbank/Bob Hope Airport (KBUR) |
| Time | Latitude | Longitude | Altitude | Speed | Heading |
|---|---|---|---|---|---|
| 2026-05-03 22:16 | 36.08483 | -115.15448 | 2098 ft | 0 kts | 11° |
| 2026-05-03 22:38 | 36.08478 | -115.15449 | 2097 ft | 4 kts | 11° |
| 2026-05-03 22:38 | 36.08452 | -115.15455 | 2098 ft | 4 kts | 9° |
| 2026-05-03 22:39 | 36.08425 | -115.15459 | 2098 ft | 4 kts | 6° |
| 2026-05-03 22:39 | 36.08398 | -115.15461 | 2098 ft | 4 kts | 353° |
| 2026-05-03 22:39 | 36.08377 | -115.15453 | 2098 ft | 4 kts | 294° |
| 2026-05-03 22:39 | 36.08375 | -115.15448 | 2097 ft | 0 kts | 245° |
| 2026-05-03 22:46 | 36.08371 | -115.15458 | 2098 ft | 4 kts | 245° |
| 2026-05-03 22:46 | 36.08351 | -115.15511 | 2098 ft | 9 kts | 246° |
| 2026-05-03 22:46 | 36.08339 | -115.15589 | 2100 ft | 11 kts | 295° |
| 2026-05-03 22:46 | 36.08419 | -115.15646 | 2101 ft | 16 kts | 335° |
| 2026-05-03 22:47 | 36.08541 | -115.15717 | 2103 ft | 22 kts | 335° |
| 2026-05-03 22:47 | 36.08653 | -115.15781 | 2106 ft | 16 kts | 335° |
| 2026-05-03 22:47 | 36.08765 | -115.15758 | 2105 ft | 19 kts | 25° |
| 2026-05-03 22:47 | 36.08910 | -115.15675 | 2102 ft | 26 kts | 25° |
| 2026-05-03 22:48 | 36.09097 | -115.15565 | 2099 ft | 33 kts | 25° |
| 2026-05-03 22:48 | 36.09316 | -115.15442 | 2098 ft | 36 kts | 25° |
| 2026-05-03 22:48 | 36.09539 | -115.15315 | 2097 ft | 30 kts | 25° |
| 2026-05-03 22:48 | 36.09673 | -115.15272 | 2097 ft | 16 kts | 329° |
| 2026-05-03 22:49 | 36.09705 | -115.15379 | 2095 ft | 13 kts | 262° |
| 2026-05-03 22:49 | 36.09657 | -115.15470 | 2096 ft | 8 kts | 216° |
| 2026-05-03 22:49 | 36.09643 | -115.15480 | 2096 ft | 0 kts | 207° |
| 2026-05-03 22:49 | 36.09612 | -115.15499 | 2097 ft | 25 kts | 206° |
| 2026-05-03 22:50 | 36.09220 | -115.15724 | 2104 ft | 96 kts | 204° |
| 2026-05-03 22:50 | 36.08449 | -115.16166 | 2127 ft | 146 kts | 205° |
| 2026-05-03 22:50 | 36.07404 | -115.16766 | 2345 ft | 171 kts | 205° |
| 2026-05-03 22:50 | 36.06313 | -115.17379 | 3046 ft | 172 kts | 205° |
| 2026-05-03 22:51 | 36.05229 | -115.18020 | 3756 ft | 174 kts | 206° |
| 2026-05-03 22:51 | 36.04114 | -115.18699 | 4240 ft | 188 kts | 206° |
| 2026-05-03 22:51 | 36.02868 | -115.19449 | 4525 ft | 211 kts | 206° |
| 2026-05-03 22:51 | 36.01472 | -115.20280 | 4813 ft | 235 kts | 206° |
| 2026-05-03 22:52 | 35.99904 | -115.21155 | 5214 ft | 260 kts | 202° |
| 2026-05-03 22:52 | 35.98169 | -115.21984 | 5911 ft | 273 kts | 200° |
| 2026-05-03 22:52 | 35.96365 | -115.22799 | 6769 ft | 278 kts | 200° |
| 2026-05-03 22:52 | 35.94529 | -115.23614 | 7624 ft | 283 kts | 200° |
| 2026-05-03 22:53 | 35.92663 | -115.24444 | 8448 ft | 287 kts | 200° |
| 2026-05-03 22:53 | 35.90770 | -115.25289 | 9238 ft | 291 kts | 200° |
| 2026-05-03 22:53 | 35.88857 | -115.26149 | 9996 ft | 295 kts | 200° |
| 2026-05-03 22:53 | 35.86895 | -115.27038 | 10475 ft | 310 kts | 200° |
| 2026-05-03 22:54 | 35.84798 | -115.27990 | 10638 ft | 332 kts | 200° |
| 2026-05-03 22:54 | 35.82612 | -115.28983 | 11031 ft | 343 kts | 200° |
| 2026-05-03 22:54 | 35.80356 | -115.30007 | 11597 ft | 348 kts | 200° |
| 2026-05-03 22:54 | 35.78072 | -115.31041 | 12176 ft | 352 kts | 200° |
| 2026-05-03 22:55 | 35.75761 | -115.32085 | 12736 ft | 355 kts | 200° |
| 2026-05-03 22:55 | 35.73429 | -115.33138 | 13274 ft | 359 kts | 200° |
| 2026-05-03 22:55 | 35.71070 | -115.34200 | 13791 ft | 362 kts | 200° |
| 2026-05-03 22:55 | 35.68691 | -115.35271 | 14290 ft | 365 kts | 200° |
| 2026-05-03 22:56 | 35.66295 | -115.36352 | 14765 ft | 368 kts | 200° |
| 2026-05-03 22:56 | 35.63879 | -115.37445 | 15222 ft | 371 kts | 201° |
| 2026-05-03 22:56 | 35.61541 | -115.38822 | 15656 ft | 374 kts | 212° |
| 2026-05-03 22:56 | 35.59469 | -115.40776 | 16086 ft | 377 kts | 224° |
| 2026-05-03 22:57 | 35.57678 | -115.43151 | 16506 ft | 380 kts | 228° |
| 2026-05-03 22:57 | 35.55901 | -115.45570 | 16916 ft | 383 kts | 228° |
| 2026-05-03 22:57 | 35.54104 | -115.48001 | 17312 ft | 386 kts | 227° |
| 2026-05-03 22:57 | 35.52290 | -115.50449 | 17699 ft | 388 kts | 227° |
| 2026-05-03 22:58 | 35.50473 | -115.52898 | 18063 ft | 391 kts | 227° |
| 2026-05-03 22:58 | 35.48627 | -115.55381 | 18174 ft | 395 kts | 227° |
| 2026-05-03 22:58 | 35.46744 | -115.57911 | 18196 ft | 407 kts | 227° |
| 2026-05-03 22:58 | 35.44812 | -115.60506 | 18194 ft | 415 kts | 227° |
| 2026-05-03 22:59 | 35.42857 | -115.63134 | 18193 ft | 417 kts | 227° |
| 2026-05-03 22:59 | 35.40925 | -115.65730 | 18193 ft | 417 kts | 227° |
| 2026-05-03 22:59 | 35.38943 | -115.68390 | 18193 ft | 417 kts | 227° |
| 2026-05-03 22:59 | 35.36984 | -115.71022 | 18193 ft | 417 kts | 227° |
| 2026-05-03 23:00 | 35.35056 | -115.73614 | 18193 ft | 417 kts | 227° |
| 2026-05-03 23:00 | 35.34020 | -115.74905 | 18192 ft | 417 kts | 224° |
| 2026-05-03 23:00 | 35.31912 | -115.77348 | 18192 ft | 417 kts | 223° |
| 2026-05-03 23:00 | 35.31146 | -115.78218 | 18192 ft | 417 kts | 223° |
| 2026-05-03 23:01 | 35.29002 | -115.80616 | 18193 ft | 418 kts | 222° |
| 2026-05-03 23:01 | 35.26848 | -115.82995 | 18195 ft | 418 kts | 222° |
| 2026-05-03 23:01 | 35.24683 | -115.85378 | 18197 ft | 418 kts | 222° |
| 2026-05-03 23:01 | 35.22526 | -115.87765 | 18200 ft | 418 kts | 222° |
| 2026-05-03 23:02 | 35.20376 | -115.90155 | 18202 ft | 418 kts | 222° |
| 2026-05-03 23:02 | 35.18223 | -115.92549 | 18203 ft | 418 kts | 222° |
| 2026-05-03 23:02 | 35.16075 | -115.94939 | 18205 ft | 418 kts | 222° |
| 2026-05-03 23:02 | 35.13924 | -115.97337 | 18206 ft | 418 kts | 222° |
| 2026-05-03 23:03 | 35.11771 | -115.99738 | 18207 ft | 418 kts | 222° |
| 2026-05-03 23:03 | 35.10346 | -116.01326 | 18207 ft | 418 kts | 222° |
| 2026-05-03 23:03 | 35.08193 | -116.03723 | 18208 ft | 418 kts | 222° |
| 2026-05-03 23:03 | 35.06037 | -116.06118 | 18209 ft | 418 kts | 222° |
| 2026-05-03 23:04 | 35.03182 | -116.09285 | 18209 ft | 418 kts | 222° |
| 2026-05-03 23:04 | 35.01033 | -116.11670 | 18209 ft | 418 kts | 222° |
| 2026-05-03 23:04 | 34.99569 | -116.13294 | 18210 ft | 418 kts | 222° |
| 2026-05-03 23:04 | 34.97441 | -116.15656 | 18210 ft | 418 kts | 222° |
| 2026-05-03 23:05 | 34.95292 | -116.18041 | 18210 ft | 418 kts | 222° |
| 2026-05-03 23:05 | 34.93178 | -116.20482 | 18205 ft | 419 kts | 227° |
| 2026-05-03 23:05 | 34.91419 | -116.23302 | 18206 ft | 418 kts | 238° |
| 2026-05-03 23:05 | 34.90095 | -116.26448 | 18211 ft | 418 kts | 245° |
| 2026-05-03 23:06 | 34.88861 | -116.29660 | 18210 ft | 418 kts | 245° |
| 2026-05-03 23:06 | 34.87620 | -116.32872 | 18210 ft | 419 kts | 244° |
| 2026-05-03 23:06 | 34.86375 | -116.36081 | 18210 ft | 419 kts | 244° |
| 2026-05-03 23:06 | 34.85130 | -116.39278 | 18210 ft | 419 kts | 244° |
| 2026-05-03 23:07 | 34.83881 | -116.42481 | 18211 ft | 419 kts | 244° |
| 2026-05-03 23:07 | 34.82627 | -116.45687 | 18211 ft | 419 kts | 244° |
| 2026-05-03 23:07 | 34.81374 | -116.48888 | 18211 ft | 419 kts | 244° |
| 2026-05-03 23:07 | 34.80125 | -116.52090 | 18211 ft | 419 kts | 244° |
| 2026-05-03 23:08 | 34.79025 | -116.55362 | 18205 ft | 419 kts | 253° |
| 2026-05-03 23:08 | 34.78432 | -116.58831 | 18207 ft | 419 kts | 263° |
| 2026-05-03 23:08 | 34.78109 | -116.62306 | 18210 ft | 419 kts | 263° |
| 2026-05-03 23:08 | 34.77773 | -116.65827 | 18210 ft | 419 kts | 263° |
| 2026-05-03 23:09 | 34.77430 | -116.69346 | 18211 ft | 419 kts | 263° |
| 2026-05-03 23:09 | 34.77086 | -116.72869 | 18210 ft | 419 kts | 263° |
| 2026-05-03 23:09 | 34.76740 | -116.76386 | 18211 ft | 419 kts | 263° |
| 2026-05-03 23:09 | 34.76392 | -116.79902 | 18211 ft | 419 kts | 263° |
| 2026-05-03 23:10 | 34.76045 | -116.83422 | 18211 ft | 419 kts | 263° |
| 2026-05-03 23:10 | 34.75700 | -116.86952 | 18211 ft | 419 kts | 263° |
| 2026-05-03 23:10 | 34.75353 | -116.90476 | 18211 ft | 419 kts | 263° |
| 2026-05-03 23:10 | 34.75000 | -116.94002 | 18212 ft | 419 kts | 263° |
| 2026-05-03 23:11 | 34.74641 | -116.97524 | 18212 ft | 419 kts | 263° |
| 2026-05-03 23:11 | 34.74281 | -117.01032 | 18212 ft | 419 kts | 263° |
| 2026-05-03 23:11 | 34.73918 | -117.04555 | 18212 ft | 419 kts | 263° |
| 2026-05-03 23:11 | 34.73558 | -117.08068 | 18212 ft | 419 kts | 263° |
| 2026-05-03 23:12 | 34.73199 | -117.11584 | 18212 ft | 419 kts | 263° |
| 2026-05-03 23:12 | 34.72839 | -117.15098 | 18212 ft | 419 kts | 263° |
| 2026-05-03 23:12 | 34.72478 | -117.18615 | 18212 ft | 419 kts | 263° |
| 2026-05-03 23:12 | 34.72114 | -117.22136 | 18212 ft | 419 kts | 262° |
| 2026-05-03 23:13 | 34.71749 | -117.25654 | 18212 ft | 419 kts | 262° |
| 2026-05-03 23:13 | 34.71383 | -117.29171 | 18212 ft | 419 kts | 262° |
| 2026-05-03 23:13 | 34.71023 | -117.32638 | 18212 ft | 419 kts | 262° |
| 2026-05-03 23:13 | 34.70658 | -117.36156 | 18212 ft | 419 kts | 262° |
| 2026-05-03 23:14 | 34.70292 | -117.39672 | 18212 ft | 419 kts | 262° |
| 2026-05-03 23:14 | 34.69926 | -117.43187 | 18212 ft | 419 kts | 262° |
| 2026-05-03 23:14 | 34.69557 | -117.46707 | 18213 ft | 419 kts | 262° |
| 2026-05-03 23:14 | 34.69186 | -117.50224 | 18213 ft | 419 kts | 262° |
| 2026-05-03 23:15 | 34.68814 | -117.53734 | 18121 ft | 419 kts | 262° |
| 2026-05-03 23:15 | 34.68441 | -117.57215 | 18014 ft | 416 kts | 262° |
| 2026-05-03 23:15 | 34.68066 | -117.60709 | 18002 ft | 415 kts | 262° |
| 2026-05-03 23:15 | 34.67697 | -117.64183 | 17997 ft | 415 kts | 262° |
| 2026-05-03 23:16 | 34.67336 | -117.67589 | 17851 ft | 399 kts | 262° |
| 2026-05-03 23:16 | 34.66977 | -117.70951 | 16946 ft | 403 kts | 262° |
| 2026-05-03 23:16 | 34.66616 | -117.74320 | 16173 ft | 403 kts | 262° |
| 2026-05-03 23:16 | 34.66258 | -117.77678 | 15594 ft | 397 kts | 262° |
| 2026-05-03 23:17 | 34.65904 | -117.80984 | 14964 ft | 393 kts | 262° |
| 2026-05-03 23:17 | 34.65555 | -117.84249 | 14378 ft | 387 kts | 262° |
| 2026-05-03 23:17 | 34.65211 | -117.87463 | 13806 ft | 381 kts | 262° |
| 2026-05-03 23:17 | 34.64870 | -117.90623 | 13322 ft | 373 kts | 262° |
| 2026-05-03 23:18 | 34.64535 | -117.93719 | 12835 ft | 366 kts | 262° |
| 2026-05-03 23:18 | 34.64204 | -117.96758 | 12356 ft | 360 kts | 262° |
| 2026-05-03 23:18 | 34.63877 | -117.99737 | 11880 ft | 354 kts | 262° |
| 2026-05-03 23:18 | 34.63552 | -118.02679 | 11403 ft | 349 kts | 262° |
| 2026-05-03 23:19 | 34.63229 | -118.05589 | 10945 ft | 345 kts | 261° |
| 2026-05-03 23:19 | 34.62700 | -118.08408 | 10495 ft | 341 kts | 255° |
| 2026-05-03 23:19 | 34.62092 | -118.11142 | 10324 ft | 328 kts | 255° |
| 2026-05-03 23:19 | 34.61510 | -118.13757 | 10197 ft | 315 kts | 255° |
| 2026-05-03 23:20 | 34.60947 | -118.16280 | 10057 ft | 304 kts | 255° |